createdAt,value
2019-01-18T00:01:53.274Z,5.67
2019-01-18T00:04:24.672Z,4.35
2019-01-18T00:06:56.142Z,3.55
2019-01-18T00:09:27.561Z,3.72
2019-01-18T00:11:58.945Z,4.80
2019-01-18T00:14:30.614Z,4.28
2019-01-18T00:17:02.088Z,3.75
2019-01-18T00:19:33.388Z,3.50
2019-01-18T00:22:04.671Z,4.58
2019-01-18T00:24:36.014Z,3.90
2019-01-18T00:27:07.421Z,3.80
2019-01-18T00:29:38.733Z,4.12
2019-01-18T00:32:10.011Z,3.60
2019-01-18T00:34:41.319Z,4.10
2019-01-18T00:37:12.726Z,3.77
2019-01-18T00:39:44.050Z,5.58
2019-01-18T00:42:15.376Z,4.03
2019-01-18T00:44:46.674Z,4.22
2019-01-18T00:47:17.996Z,5.00
2019-01-18T00:49:49.279Z,5.30
2019-01-18T00:52:20.572Z,4.78
2019-01-18T00:54:51.846Z,5.62
2019-01-18T00:57:23.183Z,6.40
2019-01-18T00:59:54.504Z,4.12
2019-01-18T01:02:25.802Z,5.80
2019-01-18T01:04:57.078Z,4.65
2019-01-18T01:07:28.574Z,4.08
2019-01-18T01:09:59.867Z,5.12
2019-01-18T01:12:31.254Z,6.08
2019-01-18T01:15:09.568Z,5.17
2019-01-18T01:17:41.335Z,6.47
2019-01-18T01:20:16.130Z,6.62
2019-01-18T01:22:47.639Z,6.10
2019-01-18T01:25:18.924Z,8.05
2019-01-18T01:27:50.233Z,5.90
2019-01-18T01:30:24.041Z,7.50
2019-01-18T01:32:55.348Z,8.43
2019-01-18T01:35:26.654Z,9.15
2019-01-18T01:37:57.958Z,8.85
2019-01-18T01:40:29.247Z,9.68
2019-01-18T01:43:00.554Z,13.28
2019-01-18T01:45:31.815Z,9.38
2019-01-18T01:48:03.164Z,11.08
2019-01-18T01:50:34.585Z,9.03
2019-01-18T01:53:05.869Z,9.25
2019-01-18T01:55:37.151Z,10.32
2019-01-18T01:58:08.444Z,6.35
2019-01-18T02:00:39.811Z,8.95
2019-01-18T02:03:11.327Z,8.45
2019-01-18T02:05:42.625Z,11.25
2019-01-18T02:08:13.927Z,10.95
2019-01-18T02:10:45.227Z,8.98
2019-01-18T02:13:16.544Z,8.13
2019-01-18T02:15:47.834Z,11.30
2019-01-18T02:18:19.298Z,15.80
2019-01-18T02:20:51.395Z,6.90
2019-01-18T02:23:22.707Z,8.53
2019-01-18T02:25:53.987Z,11.38
2019-01-18T02:28:25.292Z,11.33
2019-01-18T02:30:56.553Z,8.30
2019-01-18T02:33:27.865Z,11.83
2019-01-18T02:35:59.135Z,9.98
2019-01-18T02:38:30.513Z,11.10
2019-01-18T02:41:01.908Z,10.35
2019-01-18T02:43:33.190Z,14.15
2019-01-18T02:46:04.506Z,13.95
2019-01-18T02:48:35.816Z,12.55
2019-01-18T02:51:07.122Z,13.30
2019-01-18T02:53:38.628Z,11.28
2019-01-18T02:56:09.885Z,14.05
2019-01-18T02:58:41.238Z,10.75
2019-01-18T03:01:12.525Z,10.60
2019-01-18T03:03:45.711Z,13.75
2019-01-18T03:06:16.999Z,13.80
2019-01-18T03:08:48.414Z,15.72
2019-01-18T03:11:19.704Z,12.15
2019-01-18T03:13:51.030Z,12.78
2019-01-18T03:16:22.493Z,13.60
2019-01-18T03:18:53.760Z,15.03
2019-01-18T03:21:25.219Z,14.23
2019-01-18T03:23:56.553Z,13.50
2019-01-18T03:26:27.828Z,15.70
2019-01-18T03:28:59.398Z,13.43
2019-01-18T03:31:30.894Z,13.55
2019-01-18T03:34:02.223Z,13.55
2019-01-18T03:36:33.610Z,14.93
2019-01-18T03:39:07.960Z,13.83
2019-01-18T03:41:39.328Z,16.12
2019-01-18T03:44:10.633Z,13.75
2019-01-18T03:46:41.949Z,12.40
2019-01-18T03:49:13.209Z,15.00
2019-01-18T03:51:44.948Z,15.18
2019-01-18T03:54:16.247Z,16.15
2019-01-18T03:56:47.655Z,13.80
2019-01-18T03:59:18.916Z,17.62
2019-01-18T04:01:50.231Z,16.12
2019-01-18T04:04:21.513Z,19.90
2019-01-18T04:06:52.863Z,14.87
2019-01-18T04:12:09.625Z,17.12
2019-01-18T04:14:41.160Z,15.68
2019-01-18T04:17:12.548Z,16.37
2019-01-18T04:19:43.930Z,24.67
2019-01-18T04:22:15.366Z,17.82
2019-01-18T04:24:46.749Z,16.90
2019-01-18T04:27:18.317Z,18.00
2019-01-18T04:29:49.698Z,16.73
2019-01-18T04:32:21.003Z,18.85
2019-01-18T04:34:52.291Z,17.30
2019-01-18T04:37:23.570Z,17.92
2019-01-18T04:39:54.955Z,18.45
2019-01-18T04:42:26.326Z,20.05
2019-01-18T04:44:57.780Z,21.30
2019-01-18T04:47:29.069Z,21.52
2019-01-18T04:50:00.444Z,20.88
2019-01-18T04:52:31.686Z,19.15
2019-01-18T04:55:07.119Z,20.72
2019-01-18T04:57:38.654Z,18.32
2019-01-18T05:00:23.033Z,21.52
2019-01-18T05:02:54.461Z,20.95
2019-01-18T05:05:25.988Z,20.25
2019-01-18T05:07:57.286Z,18.12
2019-01-18T05:10:28.614Z,19.73
2019-01-18T05:13:00.516Z,25.23
2019-01-18T05:15:31.839Z,21.12
2019-01-18T05:18:03.206Z,24.90
2019-01-18T05:20:34.653Z,20.90
2019-01-18T05:23:06.115Z,19.30
2019-01-18T05:25:37.440Z,19.73
2019-01-18T05:28:08.964Z,19.32
2019-01-18T05:30:47.277Z,17.50
2019-01-18T05:33:13.638Z,19.15
2019-01-18T05:35:45.157Z,24.18
2019-01-18T05:38:16.541Z,18.70
2019-01-18T05:40:49.387Z,26.12
2019-01-18T05:43:20.791Z,21.95
2019-01-18T05:45:52.164Z,16.80
2019-01-18T05:48:23.513Z,21.85
2019-01-18T05:50:54.982Z,19.25
2019-01-18T05:53:26.822Z,23.98
2019-01-18T05:55:58.131Z,28.25
2019-01-18T05:58:29.508Z,33.25
2019-01-18T06:01:02.711Z,22.95
2019-01-18T06:03:34.019Z,20.50
2019-01-18T06:06:05.313Z,24.00
2019-01-18T06:08:36.729Z,22.25
2019-01-18T06:11:07.998Z,20.97
2019-01-18T06:13:39.358Z,25.90
2019-01-18T06:16:10.658Z,25.97
2019-01-18T06:18:42.056Z,20.40
2019-01-18T06:21:13.372Z,21.02
2019-01-18T06:23:44.684Z,21.50
2019-01-18T06:26:16.029Z,18.60
2019-01-18T06:28:47.339Z,19.37
2019-01-18T06:31:18.677Z,20.45
2019-01-18T06:33:50.052Z,25.12
2019-01-18T06:36:21.337Z,23.00
2019-01-18T06:38:52.747Z,20.80
2019-01-18T06:41:27.681Z,18.77
2019-01-18T06:43:59.056Z,18.98
2019-01-18T06:46:30.400Z,21.57
2019-01-18T06:49:02.209Z,20.27
2019-01-18T06:51:33.509Z,18.57
2019-01-18T06:54:04.870Z,20.72
2019-01-18T06:56:36.180Z,18.12
2019-01-18T06:59:07.488Z,20.52
2019-01-18T07:01:38.798Z,17.52
2019-01-18T07:04:10.150Z,21.82
2019-01-18T07:06:41.599Z,18.73
2019-01-18T07:09:12.949Z,19.40
2019-01-18T07:11:44.338Z,19.32
2019-01-18T07:14:15.682Z,18.57
2019-01-18T07:17:05.809Z,18.50
2019-01-18T07:19:37.261Z,18.02
2019-01-18T07:22:08.550Z,25.48
2019-01-18T07:24:39.855Z,20.15
2019-01-18T07:27:11.171Z,21.60
2019-01-18T07:29:42.520Z,19.82
2019-01-18T07:32:13.759Z,18.12
2019-01-18T07:34:45.069Z,16.82
2019-01-18T07:37:16.336Z,17.30
2019-01-18T07:39:47.636Z,21.20
2019-01-18T07:42:18.975Z,18.90
2019-01-18T07:44:50.280Z,22.75
2019-01-18T07:47:21.597Z,23.85
2019-01-18T07:49:52.912Z,21.25
2019-01-18T07:52:24.212Z,22.17
2019-01-18T07:54:55.521Z,22.53
2019-01-18T07:57:26.804Z,24.70
2019-01-18T07:59:58.104Z,49.73
2019-01-18T08:02:29.365Z,39.13
2019-01-18T08:05:00.734Z,33.53
2019-01-18T08:07:32.003Z,35.65
2019-01-18T08:10:08.995Z,39.73
2019-01-18T08:12:40.753Z,38.45
2019-01-18T08:15:19.515Z,38.80
2019-01-18T08:17:50.802Z,35.52
2019-01-18T08:20:25.125Z,44.75
2019-01-18T08:22:56.912Z,31.35
2019-01-18T08:25:28.231Z,39.13
2019-01-18T08:28:17.762Z,35.78
2019-01-18T08:30:49.388Z,37.42
2019-01-18T08:33:20.694Z,46.35
2019-01-18T08:35:52.150Z,39.48
2019-01-18T08:38:23.419Z,39.15
2019-01-18T08:40:54.709Z,37.17
2019-01-18T08:43:26.059Z,41.50
2019-01-18T08:45:57.384Z,34.95
2019-01-18T08:48:28.660Z,63.00
2019-01-18T08:50:59.962Z,53.92
2019-01-18T08:53:31.246Z,40.95
2019-01-18T08:56:03.154Z,62.88
2019-01-18T08:58:34.492Z,85.87
2019-01-18T09:01:05.948Z,53.15
2019-01-18T09:03:37.235Z,51.50
2019-01-18T09:06:08.542Z,59.00
2019-01-18T09:08:39.949Z,93.50
2019-01-18T09:11:11.224Z,59.05
2019-01-18T09:13:42.545Z,68.62
2019-01-18T09:16:13.888Z,93.15
2019-01-18T09:18:45.212Z,71.37
2019-01-18T09:21:16.532Z,109.42
2019-01-18T09:23:47.878Z,114.12
2019-01-18T09:26:19.296Z,107.17
2019-01-18T09:28:50.574Z,138.18
2019-01-18T09:31:21.998Z,118.82
2019-01-18T09:33:53.271Z,96.67
2019-01-18T09:36:24.633Z,109.50
2019-01-18T09:38:55.991Z,99.35
2019-01-18T09:41:27.289Z,144.50
2019-01-18T09:43:58.559Z,152.62
2019-01-18T09:46:29.909Z,148.45
2019-01-18T09:49:01.200Z,155.07
2019-01-18T09:51:32.529Z,151.80
2019-01-18T09:54:03.798Z,153.25
2019-01-18T09:56:35.097Z,150.95
2019-01-18T09:59:06.634Z,168.45
2019-01-18T10:01:38.068Z,173.95
2019-01-18T10:04:09.587Z,152.40
2019-01-18T10:06:59.278Z,152.05
2019-01-18T10:09:30.567Z,144.00
2019-01-18T10:12:02.422Z,134.70
2019-01-18T10:14:33.793Z,120.67
2019-01-18T10:17:05.080Z,151.70
2019-01-18T10:19:36.383Z,140.60
2019-01-18T10:22:07.821Z,133.18
2019-01-18T10:24:39.119Z,131.30
2019-01-18T10:27:10.523Z,134.20
2019-01-18T10:29:41.991Z,106.35
2019-01-18T10:32:31.758Z,104.65
2019-01-18T10:35:05.533Z,78.10
2019-01-18T10:37:36.951Z,82.97
2019-01-18T10:40:10.968Z,84.22
2019-01-18T10:42:45.444Z,66.47
2019-01-18T10:45:18.140Z,65.15
2019-01-18T10:47:49.467Z,92.65
2019-01-18T10:50:27.944Z,69.72
2019-01-18T10:52:59.257Z,86.87
2019-01-18T10:55:30.533Z,63.48
2019-01-18T10:58:01.886Z,74.42
2019-01-18T11:00:51.951Z,64.15
2019-01-18T11:03:23.260Z,61.40
2019-01-18T11:05:54.544Z,57.23
2019-01-18T11:08:26.025Z,57.53
2019-01-18T11:10:57.325Z,52.95
2019-01-18T11:13:28.667Z,55.95
2019-01-18T11:15:59.994Z,54.35
2019-01-18T11:18:31.443Z,49.27
2019-01-18T11:21:04.186Z,44.98
2019-01-18T11:23:35.526Z,50.30
2019-01-18T11:26:06.798Z,53.85
2019-01-18T11:28:38.130Z,55.03
2019-01-18T11:31:09.481Z,49.30
2019-01-18T11:33:40.869Z,53.28
2019-01-18T11:36:12.266Z,38.88
2019-01-18T11:38:46.509Z,45.50
2019-01-18T11:41:17.807Z,46.75
2019-01-18T11:43:49.220Z,56.02
2019-01-18T11:46:20.509Z,49.45
2019-01-18T11:48:51.811Z,45.38
2019-01-18T11:51:23.198Z,47.55
2019-01-18T11:53:54.492Z,48.65
2019-01-18T11:56:25.788Z,45.48
2019-01-18T11:58:57.091Z,49.38
2019-01-18T12:01:28.448Z,47.50
2019-01-18T12:03:59.771Z,46.30
2019-01-18T12:06:31.173Z,39.98
2019-01-18T12:09:05.404Z,35.92
2019-01-18T12:11:38.694Z,51.55
2019-01-18T12:14:10.257Z,38.48
2019-01-18T12:16:41.569Z,40.00
2019-01-18T12:19:12.896Z,31.60
2019-01-18T12:21:44.221Z,32.88
2019-01-18T12:24:15.535Z,27.35
2019-01-18T12:26:46.810Z,26.02
2019-01-18T12:29:18.516Z,29.20
2019-01-18T12:31:50.093Z,27.50
2019-01-18T12:34:21.432Z,34.58
2019-01-18T12:36:58.582Z,31.55
2019-01-18T12:39:26.171Z,30.12
2019-01-18T12:41:57.581Z,29.12
2019-01-18T12:44:29.158Z,30.12
2019-01-18T12:47:00.438Z,30.52
2019-01-18T12:49:31.900Z,24.82
2019-01-18T12:52:03.202Z,25.62
2019-01-18T12:54:34.600Z,29.40
2019-01-18T12:57:05.880Z,29.18
2019-01-18T12:59:37.194Z,26.33
2019-01-18T13:02:08.503Z,31.93
2019-01-18T13:04:39.865Z,32.38
2019-01-18T13:07:16.410Z,27.82
2019-01-18T13:09:47.828Z,25.62
2019-01-18T13:12:19.231Z,30.85
2019-01-18T13:14:50.539Z,31.52
2019-01-18T13:17:21.833Z,26.15
2019-01-18T13:19:53.157Z,26.33
2019-01-18T13:22:26.182Z,30.23
2019-01-18T13:24:57.610Z,24.32
2019-01-18T13:27:28.979Z,23.45
2019-01-18T13:30:00.310Z,22.65
2019-01-18T13:32:32.468Z,21.75
2019-01-18T13:35:06.158Z,20.23
2019-01-18T13:37:37.448Z,20.70
2019-01-18T13:40:19.116Z,20.92
2019-01-18T13:42:50.800Z,25.43
2019-01-18T13:45:24.390Z,23.15
2019-01-18T13:47:55.272Z,24.02
2019-01-18T13:50:26.700Z,26.33
2019-01-18T13:52:58.158Z,24.65
2019-01-18T13:55:29.697Z,26.37
2019-01-18T13:58:01.036Z,27.42
2019-01-18T14:00:32.389Z,27.05
2019-01-18T14:03:03.709Z,27.67
2019-01-18T14:05:35.068Z,29.27
2019-01-18T14:08:06.334Z,29.07
2019-01-18T14:10:37.672Z,27.02
2019-01-18T14:13:08.975Z,26.55
2019-01-18T14:15:40.302Z,31.12
2019-01-18T14:18:11.572Z,30.37
2019-01-18T14:20:42.877Z,29.75
2019-01-18T14:23:14.189Z,27.95
2019-01-18T14:25:45.879Z,28.02
2019-01-18T14:28:17.219Z,28.52
2019-01-18T14:30:48.550Z,27.65
2019-01-18T14:33:20.251Z,28.07
2019-01-18T14:35:51.917Z,29.07
2019-01-18T14:38:25.168Z,31.15
2019-01-18T14:40:56.483Z,29.63
2019-01-18T14:43:27.911Z,37.05
2019-01-18T14:45:59.241Z,33.25
2019-01-18T14:48:30.668Z,32.85
2019-01-18T14:51:02.013Z,32.25
2019-01-18T14:53:34.242Z,33.00
2019-01-18T14:56:06.065Z,33.13
2019-01-18T14:58:37.414Z,32.25
2019-01-18T15:01:08.794Z,32.58
2019-01-18T15:03:40.203Z,34.67
2019-01-18T15:06:11.619Z,37.10
2019-01-18T15:08:42.969Z,33.45
2019-01-18T15:11:14.234Z,32.93
2019-01-18T15:13:45.589Z,32.93
2019-01-18T15:16:16.857Z,30.08
2019-01-18T15:18:48.175Z,33.02
2019-01-18T15:21:19.509Z,37.15
2019-01-18T15:23:51.440Z,33.63
2019-01-18T15:26:22.748Z,34.30
2019-01-18T15:28:54.046Z,37.25
2019-01-18T15:31:25.380Z,32.73
2019-01-18T15:33:56.753Z,32.70
2019-01-18T15:36:28.068Z,36.33
2019-01-18T15:38:59.528Z,54.48
2019-01-18T15:41:30.808Z,38.50
2019-01-18T15:44:02.119Z,49.45
2019-01-18T15:46:33.428Z,52.60
2019-01-18T15:49:04.727Z,38.30
2019-01-18T15:51:37.848Z,35.00
2019-01-18T15:54:09.175Z,34.80
2019-01-18T15:56:40.423Z,34.05
2019-01-18T15:59:11.726Z,39.03
2019-01-18T16:01:43.061Z,42.58
2019-01-18T16:04:14.352Z,35.73
2019-01-18T16:06:45.635Z,39.95
2019-01-18T16:09:17.080Z,42.50
2019-01-18T16:11:48.442Z,39.45
2019-01-18T16:14:19.730Z,38.88
2019-01-18T16:16:51.045Z,32.65
2019-01-18T16:19:22.342Z,37.58
2019-01-18T16:21:53.628Z,35.95
2019-01-18T16:24:24.936Z,43.55
2019-01-18T16:26:56.250Z,62.23
2019-01-18T16:29:27.572Z,44.08
2019-01-18T16:31:58.853Z,30.57
2019-01-18T16:34:32.759Z,31.62
2019-01-18T16:37:04.069Z,34.83
2019-01-18T16:39:35.562Z,32.85
2019-01-18T16:42:07.033Z,35.30
2019-01-18T16:44:38.346Z,47.95
2019-01-18T16:47:09.627Z,28.87
2019-01-18T16:49:40.936Z,29.85
2019-01-18T16:52:13.783Z,29.45
2019-01-18T16:54:45.098Z,27.30
2019-01-18T16:57:16.510Z,29.55
2019-01-18T16:59:47.852Z,28.60
2019-01-18T17:02:19.603Z,31.90
2019-01-18T17:04:50.894Z,31.62
2019-01-18T17:07:22.195Z,30.55
2019-01-18T17:09:54.199Z,35.35
2019-01-18T17:12:25.538Z,32.65
2019-01-18T17:14:56.952Z,36.03
2019-01-18T17:17:28.288Z,66.42
2019-01-18T17:19:59.629Z,148.57
2019-01-18T17:22:30.910Z,32.25
2019-01-18T17:25:04.104Z,33.23
2019-01-18T17:27:35.406Z,44.73
2019-01-18T17:30:17.280Z,34.78
2019-01-18T17:32:48.563Z,33.35
2019-01-18T17:35:28.612Z,34.05
2019-01-18T17:38:17.358Z,35.60
2019-01-18T17:40:54.452Z,149.45
2019-01-18T17:43:43.096Z,93.60
2019-01-18T17:46:23.655Z,136.92
2019-01-18T17:49:34.304Z,52.88
2019-01-18T17:52:26.178Z,78.07
2019-01-18T17:55:03.198Z,110.95
2019-01-18T17:58:04.664Z,55.98
2019-01-18T18:00:47.745Z,69.07
2019-01-18T18:03:51.766Z,35.35
2019-01-18T18:06:45.422Z,28.67
2019-01-18T18:09:34.419Z,29.52
2019-01-18T18:12:40.238Z,25.15
2019-01-18T18:15:38.457Z,28.92
2019-01-18T18:18:35.375Z,26.25
2019-01-18T18:21:21.196Z,29.30
2019-01-18T18:24:01.012Z,26.50
2019-01-18T18:27:05.503Z,26.62
2019-01-18T18:29:45.246Z,40.25
2019-01-18T18:32:47.974Z,35.90
2019-01-18T18:35:51.013Z,30.37
2019-01-18T18:38:39.679Z,25.95
2019-01-18T18:41:56.593Z,28.45
2019-01-18T18:45:07.131Z,27.15
2019-01-18T18:48:10.865Z,25.02
2019-01-18T18:51:17.063Z,27.37
2019-01-18T18:54:37.993Z,28.45
2019-01-18T18:57:49.812Z,28.90
2019-01-18T19:01:00.559Z,30.72
2019-01-18T19:03:57.462Z,34.13
2019-01-18T19:06:57.526Z,34.45
2019-01-18T19:09:57.490Z,36.30
2019-01-18T19:12:40.424Z,38.65
2019-01-18T19:15:49.710Z,35.68
2019-01-18T19:18:45.457Z,35.65
2019-01-18T19:21:40.564Z,32.60
2019-01-18T19:24:51.193Z,37.98
2019-01-18T19:28:09.247Z,37.70
2019-01-18T19:31:07.020Z,36.35
2019-01-18T19:34:04.490Z,33.10
2019-01-18T19:36:43.580Z,32.48
2019-01-18T19:39:40.157Z,36.88
2019-01-18T19:42:41.340Z,35.80
2019-01-18T19:45:24.120Z,34.55
2019-01-18T19:48:06.631Z,36.85
2019-01-18T19:50:52.522Z,38.08
2019-01-18T19:53:50.598Z,33.40
2019-01-18T19:56:44.960Z,35.83
2019-01-18T19:59:41.256Z,37.67
2019-01-18T20:02:24.138Z,39.13
2019-01-18T20:05:40.182Z,33.67
2019-01-18T20:08:23.131Z,35.43
2019-01-18T20:11:08.539Z,36.95
2019-01-18T20:13:54.227Z,36.93
2019-01-18T20:17:09.280Z,38.40
2019-01-18T20:19:49.027Z,37.42
2019-01-18T20:22:29.030Z,38.75
2019-01-18T20:25:33.042Z,37.45
2019-01-18T20:28:25.645Z,32.65
2019-01-18T20:31:14.812Z,37.17
2019-01-18T20:34:05.698Z,37.50
2019-01-18T20:36:57.884Z,39.15
2019-01-18T20:39:56.813Z,35.73
2019-01-18T20:43:05.713Z,36.83
2019-01-18T20:45:48.387Z,35.33
2019-01-18T20:48:49.481Z,36.48
2019-01-18T20:51:29.455Z,37.65
2019-01-18T20:54:28.657Z,33.45
2019-01-18T20:57:43.521Z,32.75
2019-01-18T21:00:35.300Z,33.88
2019-01-18T21:03:14.995Z,33.15
2019-01-18T21:06:24.873Z,37.20
2019-01-18T21:09:35.529Z,37.75
2019-01-18T21:12:28.051Z,34.25
2019-01-18T21:15:17.272Z,36.13
2019-01-18T21:18:03.413Z,38.63
2019-01-18T21:20:52.700Z,38.80
2019-01-18T21:23:34.962Z,39.90
2019-01-18T21:26:23.849Z,41.65
2019-01-18T21:29:09.455Z,39.80
2019-01-18T21:31:52.429Z,35.98
2019-01-18T21:34:54.975Z,38.00
2019-01-18T21:38:05.008Z,36.60
2019-01-18T21:40:52.002Z,39.42
2019-01-18T21:43:55.932Z,39.48
2019-01-18T21:46:38.623Z,40.33
2019-01-18T21:49:24.484Z,41.73
2019-01-18T21:52:34.085Z,38.65
2019-01-18T21:55:17.465Z,37.00
2019-01-18T21:58:03.490Z,39.63
2019-01-18T22:00:56.022Z,40.58
2019-01-18T22:03:56.862Z,45.55
2019-01-18T22:06:42.537Z,44.45
2019-01-18T22:09:25.561Z,43.35
2019-01-18T22:12:08.941Z,47.00
2019-01-18T22:15:11.911Z,42.48
2019-01-18T22:18:01.223Z,45.03
2019-01-18T22:20:44.008Z,40.10
2019-01-18T22:23:27.123Z,42.65
2019-01-18T22:26:33.887Z,42.62
2019-01-18T22:29:32.757Z,41.60
2019-01-18T22:32:24.928Z,41.15
2019-01-18T22:35:11.158Z,39.95
2019-01-18T22:37:57.172Z,40.00
2019-01-18T22:40:39.927Z,41.30
2019-01-18T22:43:47.429Z,98.10
2019-01-18T22:46:50.565Z,52.15
2019-01-18T22:49:43.872Z,54.18
2019-01-18T22:52:25.249Z,203.70
2019-01-18T22:55:23.410Z,114.65
2019-01-18T22:58:21.282Z,44.40
2019-01-18T23:01:16.606Z,41.18
2019-01-18T23:04:22.528Z,67.92
2019-01-18T23:07:02.443Z,77.80
2019-01-18T23:10:09.798Z,40.90
2019-01-18T23:12:55.733Z,46.02
2019-01-18T23:16:15.536Z,47.88
2019-01-18T23:18:58.381Z,46.37
2019-01-18T23:21:44.144Z,40.00
2019-01-18T23:24:27.299Z,36.77
2019-01-18T23:27:25.225Z,39.23
2019-01-18T23:30:07.926Z,38.75
2019-01-18T23:33:04.586Z,45.08
2019-01-18T23:36:05.264Z,44.25
2019-01-18T23:39:05.881Z,43.98
2019-01-18T23:42:00.927Z,45.30
2019-01-18T23:44:52.742Z,41.65
2019-01-18T23:47:54.059Z,42.45
2019-01-18T23:50:40.133Z,39.75
2019-01-18T23:53:35.141Z,40.90
2019-01-18T23:56:20.755Z,42.65
2019-01-18T23:59:03.562Z,42.75
